Time;durP1;ratioP1;P1;durP2;ratioP2;P2;SDS_P1;SDS_P2;PMS_P1;PMS_P2;Temp;Humidity;BMP_temperature;BMP_pressure;BME280_temperature;BME280_humidity;BME280_pressure;Samples;Min_cycle;Max_cycle;Signal;HPM_P1;HPM_P2
2023/10/19 00:00:51;;;;;;;30.20;20.40;;;8.30;99.90;;;;;;4994219;28;20281;-73
2023/10/19 00:03:18;;;;;;;26.80;19.80;;;8.30;99.90;;;;;;4993483;28;20380;-73
2023/10/19 00:05:46;;;;;;;28.37;19.77;;;8.30;99.90;;;;;;4992752;28;20289;-72
2023/10/19 00:10:42;;;;;;;26.93;20.00;;;8.30;99.90;;;;;;4993405;28;20285;-72
2023/10/19 00:13:11;;;;;;;32.73;22.17;;;8.30;99.90;;;;;;4994986;28;20292;-72
2023/10/19 00:15:52;;;;;;;34.90;22.53;;;8.30;99.90;;;;;;4997061;28;20606;-72
2023/10/19 00:20:52;;;;;;;36.87;22.23;;;8.30;99.90;;;;;;4997223;28;20681;-75
2023/10/19 00:23:32;;;;;;;30.03;20.57;;;8.30;99.90;;;;;;4996764;28;20289;-76
2023/10/19 00:25:59;;;;;;;35.17;23.90;;;8.30;99.90;;;;;;4995919;28;20301;-76
2023/10/19 00:28:27;;;;;;;45.30;26.70;;;8.20;99.90;;;;;;4996636;28;20302;-76
2023/10/19 00:30:59;;;;;;;35.07;22.70;;;8.20;99.90;;;;;;4997299;28;20293;-75
2023/10/19 00:33:28;;;;;;;34.20;23.97;;;8.20;99.90;;;;;;4996630;28;20335;-75
2023/10/19 00:36:07;;;;;;;36.07;24.17;;;8.20;99.90;;;;;;4996491;28;20349;-75
2023/10/19 00:43:42;;;;;;;40.13;25.60;;;8.20;99.90;;;;;;4997055;28;20368;-76
2023/10/19 00:46:20;;;;;;;40.80;25.00;;;8.20;99.90;;;;;;4996024;28;20769;-76
2023/10/19 00:49:00;;;;;;;33.33;24.47;;;8.20;99.90;;;;;;4996819;28;20375;-75
2023/10/19 00:54:09;;;;;;;36.93;25.43;;;8.20;99.90;;;;;;4996164;28;20285;-75
2023/10/19 00:56:36;;;;;;;42.23;26.83;;;8.20;99.90;;;;;;4996192;28;20320;-75
2023/10/19 00:59:13;;;;;;;55.40;29.37;;;8.20;99.90;;;;;;4996611;28;20289;-74
2023/10/19 01:01:43;;;;;;;36.37;24.80;;;8.20;99.90;;;;;;4996617;28;20329;-75
2023/10/19 01:04:14;;;;;;;37.37;25.70;;;8.20;99.90;;;;;;4996058;28;20412;-75
2023/10/19 01:06:44;;;;;;;37.63;26.50;;;8.20;99.90;;;;;;4996430;28;20305;-75
2023/10/19 01:09:17;;;;;;;35.43;25.10;;;8.20;99.90;;;;;;4994837;28;20289;-74
2023/10/19 01:11:49;;;;;;;40.43;25.80;;;8.20;99.90;;;;;;4996401;28;20288;-75
2023/10/19 01:14:22;;;;;;;35.57;25.50;;;8.20;99.90;;;;;;4996088;28;20297;-74
2023/10/19 01:16:49;;;;;;;49.30;29.73;;;8.20;99.90;;;;;;4995728;28;20769;-74
2023/10/19 01:19:20;;;;;;;42.77;28.20;;;8.20;99.90;;;;;;4996229;28;20286;-74
2023/10/19 01:21:52;;;;;;;37.13;25.23;;;8.20;99.90;;;;;;4996371;28;20285;-74
2023/10/19 01:24:24;;;;;;;42.10;27.73;;;8.20;99.90;;;;;;4995584;28;20278;-73
2023/10/19 01:26:51;;;;;;;39.50;28.17;;;8.20;99.90;;;;;;4995875;28;20315;-73
2023/10/19 01:29:17;;;;;;;45.10;28.33;;;8.20;99.90;;;;;;4995964;28;20290;-73
2023/10/19 01:32:08;;;;;;;60.53;32.73;;;8.20;99.90;;;;;;4994186;28;20288;-75
2023/10/19 01:34:35;;;;;;;42.80;28.70;;;8.20;99.90;;;;;;4995354;28;20745;-73
2023/10/19 01:37:04;;;;;;;46.33;29.70;;;8.20;99.90;;;;;;4994056;28;20290;-73
2023/10/19 01:39:36;;;;;;;52.33;30.80;;;8.20;99.90;;;;;;4995201;28;20281;-73
2023/10/19 01:42:08;;;;;;;42.10;28.53;;;8.20;99.90;;;;;;4995016;28;20297;-73
2023/10/19 01:44:35;;;;;;;48.70;29.07;;;8.30;99.90;;;;;;4995545;28;20635;-73
2023/10/19 01:47:03;;;;;;;50.27;29.20;;;8.20;99.90;;;;;;4995074;28;20308;-73
2023/10/19 01:49:30;;;;;;;45.37;28.50;;;8.20;99.90;;;;;;4995830;28;20335;-73
2023/10/19 01:51:56;;;;;;;53.97;31.73;;;8.30;99.90;;;;;;4993811;28;20313;-74
2023/10/19 01:54:24;;;;;;;44.33;28.37;;;8.30;99.90;;;;;;4993893;28;20368;-73
2023/10/19 01:56:57;;;;;;;46.43;29.30;;;8.30;99.90;;;;;;4994956;28;20094;-73
2023/10/19 01:59:27;;;;;;;48.37;29.57;;;8.30;99.90;;;;;;4995454;28;20286;-73
2023/10/19 02:01:57;;;;;;;35.97;25.27;;;8.30;99.90;;;;;;4994864;28;20288;-74
2023/10/19 02:04:23;;;;;;;45.23;28.50;;;8.30;99.90;;;;;;4994797;28;20304;-73
2023/10/19 02:06:52;;;;;;;44.00;27.53;;;8.30;99.90;;;;;;4995492;28;20629;-73
2023/10/19 02:09:25;;;;;;;43.87;28.03;;;8.30;99.90;;;;;;4995031;28;20375;-73
2023/10/19 02:11:53;;;;;;;47.00;28.90;;;8.30;99.90;;;;;;4993819;28;20285;-73
2023/10/19 02:14:19;;;;;;;49.70;28.97;;;8.30;99.90;;;;;;4994660;28;20372;-72
2023/10/19 02:16:53;;;;;;;45.43;27.37;;;8.30;99.90;;;;;;4994657;28;20288;-73
2023/10/19 02:19:24;;;;;;;46.07;27.70;;;8.30;99.90;;;;;;4994178;28;20304;-72
2023/10/19 02:21:52;;;;;;;59.83;31.47;;;8.30;99.90;;;;;;4994545;28;20368;-73
2023/10/19 02:24:18;;;;;;;46.67;26.70;;;8.30;99.90;;;;;;4995017;28;20293;-73
2023/10/19 02:26:49;;;;;;;45.77;27.00;;;8.30;99.90;;;;;;4992815;28;20316;-73
2023/10/19 02:29:15;;;;;;;45.20;25.03;;;8.30;99.90;;;;;;4994939;28;20658;-72
2023/10/19 02:31:41;;;;;;;33.97;22.10;;;8.30;99.90;;;;;;4993447;28;20289;-73
2023/10/19 02:34:09;;;;;;;43.83;26.67;;;8.30;99.90;;;;;;4994289;28;20046;-73
2023/10/19 02:36:37;;;;;;;45.77;25.13;;;8.30;99.90;;;;;;4993652;28;20767;-73
2023/10/19 02:39:07;;;;;;;30.70;21.23;;;8.30;99.90;;;;;;4994254;28;20289;-75
2023/10/19 02:41:38;;;;;;;39.47;24.47;;;8.30;99.90;;;;;;4994107;28;20344;-74
2023/10/19 02:44:09;;;;;;;52.30;27.03;;;8.30;99.90;;;;;;4993123;28;20305;-74
2023/10/19 02:46:41;;;;;;;36.90;21.33;;;8.30;99.90;;;;;;4976703;28;20769;-74
2023/10/19 02:49:11;;;;;;;29.47;19.43;;;8.30;99.90;;;;;;4995192;28;20288;-74
2023/10/19 02:51:44;;;;;;;30.60;19.63;;;8.30;99.90;;;;;;4994391;28;20285;-74
2023/10/19 02:54:19;;;;;;;27.27;18.73;;;8.40;99.90;;;;;;4994917;28;20603;-74
2023/10/19 02:56:49;;;;;;;40.63;21.30;;;8.40;99.90;;;;;;4994144;28;20284;-73
2023/10/19 02:59:16;;;;;;;27.37;18.07;;;8.40;99.90;;;;;;4994768;28;20050;-74
2023/10/19 03:01:45;;;;;;;32.40;19.20;;;8.40;99.90;;;;;;4993942;28;20296;-74
2023/10/19 03:04:15;;;;;;;31.47;18.80;;;8.40;99.90;;;;;;4993934;28;20317;-74
2023/10/19 03:06:41;;;;;;;30.23;18.57;;;8.40;99.90;;;;;;4993839;28;20308;-74
2023/10/19 03:09:15;;;;;;;28.57;17.87;;;8.40;99.90;;;;;;4993864;28;20284;-75
2023/10/19 03:11:42;;;;;;;31.15;18.80;;;8.40;99.90;;;;;;4994553;28;20281;-74
2023/10/19 03:14:09;;;;;;;34.73;19.03;;;8.40;99.90;;;;;;4994158;28;20122;-75
2023/10/19 03:16:37;;;;;;;33.37;18.73;;;8.40;99.90;;;;;;4993723;28;20316;-74
2023/10/19 03:19:04;;;;;;;49.27;21.80;;;8.40;99.90;;;;;;4993820;28;20285;-75
2023/10/19 03:21:34;;;;;;;35.60;20.13;;;8.40;99.90;;;;;;4993916;28;20311;-74
2023/10/19 03:24:12;;;;;;;39.83;20.87;;;8.40;99.90;;;;;;4994428;28;20285;-75
2023/10/19 03:26:40;;;;;;;29.10;18.10;;;8.40;99.90;;;;;;4993914;28;20297;-75
2023/10/19 03:29:14;;;;;;;25.27;16.60;;;8.40;99.90;;;;;;4994248;28;20305;-76
2023/10/19 03:31:43;;;;;;;28.98;17.67;;;8.40;99.90;;;;;;4993128;28;20297;-75
2023/10/19 03:34:17;;;;;;;27.17;16.67;;;8.40;99.90;;;;;;4976214;28;20049;-75
2023/10/19 03:36:44;;;;;;;29.60;16.70;;;8.40;99.90;;;;;;4993686;28;20750;-75
2023/10/19 03:39:14;;;;;;;32.30;17.47;;;8.40;99.90;;;;;;4994158;28;20053;-75
2023/10/19 03:41:44;;;;;;;23.20;15.03;;;8.50;99.90;;;;;;4993662;28;20292;-75
2023/10/19 03:44:19;;;;;;;27.73;16.40;;;8.50;99.90;;;;;;4993558;28;20372;-75
2023/10/19 03:46:57;;;;;;;28.57;17.33;;;8.50;99.90;;;;;;4994896;28;20297;-76
2023/10/19 03:49:30;;;;;;;31.60;18.00;;;8.50;99.90;;;;;;4996575;28;20278;-76
2023/10/19 03:52:00;;;;;;;38.40;19.40;;;8.50;99.90;;;;;;4980462;28;20699;-79
2023/10/19 03:54:27;;;;;;;34.13;18.87;;;8.50;99.90;;;;;;4997335;28;20749;-76
2023/10/19 03:56:56;;;;;;;28.60;16.83;;;8.50;99.90;;;;;;4997300;28;20361;-76
2023/10/19 03:59:23;;;;;;;25.03;15.50;;;8.50;99.90;;;;;;4996226;28;20301;-76
2023/10/19 04:01:49;;;;;;;30.07;17.50;;;8.50;99.90;;;;;;4997207;28;20286;-76
2023/10/19 04:04:16;;;;;;;35.43;18.73;;;8.60;99.90;;;;;;4979634;28;20293;-76
2023/10/19 04:06:49;;;;;;;32.53;18.17;;;8.60;99.90;;;;;;4997001;28;20104;-76
2023/10/19 04:09:17;;;;;;;39.87;20.57;;;8.60;99.90;;;;;;4996794;28;20297;-76
2023/10/19 04:11:49;;;;;;;41.50;20.47;;;8.60;99.90;;;;;;4997703;28;20282;-76
2023/10/19 04:14:16;;;;;;;32.03;18.27;;;8.60;99.90;;;;;;4997471;28;20274;-77
2023/10/19 04:16:44;;;;;;;32.17;18.13;;;8.60;99.90;;;;;;4996828;28;20321;-76
2023/10/19 04:19:11;;;;;;;36.63;17.73;;;8.70;99.90;;;;;;4979647;28;20356;-77
2023/10/19 04:21:39;;;;;;;23.20;15.00;;;8.70;99.90;;;;;;4996745;28;20277;-77
2023/10/19 04:24:09;;;;;;;31.50;17.73;;;8.70;99.90;;;;;;4996932;28;20661;-77
2023/10/19 04:26:37;;;;;;;34.57;18.47;;;8.70;99.90;;;;;;4995259;28;20856;-77
2023/10/19 04:29:11;;;;;;;31.07;17.03;;;8.70;99.90;;;;;;4996613;28;20352;-78
2023/10/19 04:31:49;;;;;;;27.20;15.97;;;8.70;99.90;;;;;;4995666;28;20372;-77
2023/10/19 04:34:20;;;;;;;24.23;15.03;;;8.70;99.90;;;;;;4995671;28;20284;-78
2023/10/19 04:36:49;;;;;;;27.43;16.17;;;8.70;99.90;;;;;;4995881;28;20634;-77
2023/10/19 04:39:15;;;;;;;29.10;16.03;;;8.70;99.90;;;;;;4996406;28;20336;-77
2023/10/19 04:41:41;;;;;;;39.83;18.70;;;8.70;99.90;;;;;;4995445;28;20321;-77
2023/10/19 04:44:10;;;;;;;27.10;16.40;;;8.70;99.90;;;;;;4996932;28;20054;-77
2023/10/19 04:46:37;;;;;;;34.83;18.00;;;8.70;99.90;;;;;;4995239;28;20615;-76
2023/10/19 04:49:05;;;;;;;31.63;16.70;;;8.70;99.90;;;;;;4995604;28;20290;-79
2023/10/19 04:51:31;;;;;;;39.93;18.43;;;8.70;99.90;;;;;;4996280;28;20281;-77
2023/10/19 04:53:57;;;;;;;34.63;18.57;;;8.80;99.90;;;;;;4995533;28;20348;-77
2023/10/19 04:56:23;;;;;;;47.33;21.30;;;8.80;99.90;;;;;;4995829;28;20043;-77
2023/10/19 04:58:48;;;;;;;34.77;18.00;;;8.80;99.90;;;;;;4995546;28;20054;-76
2023/10/19 05:01:15;;;;;;;49.30;20.53;;;8.80;99.90;;;;;;4996089;28;20437;-77
2023/10/19 05:03:42;;;;;;;29.27;16.73;;;8.80;99.90;;;;;;4963169;28;20133;-77
2023/10/19 05:06:09;;;;;;;22.73;14.33;;;8.80;99.90;;;;;;4996095;28;20773;-78
2023/10/19 05:08:36;;;;;;;38.93;18.37;;;8.80;99.90;;;;;;4994641;28;20646;-77
2023/10/19 05:11:03;;;;;;;28.87;15.03;;;8.90;99.90;;;;;;4995944;28;20288;-78
2023/10/19 05:13:31;;;;;;;25.00;14.70;;;8.90;99.90;;;;;;4994893;28;20305;-78
2023/10/19 05:15:58;;;;;;;26.63;15.07;;;8.90;99.90;;;;;;4995612;28;20835;-78
2023/10/19 05:18:25;;;;;;;21.77;13.27;;;8.90;99.90;;;;;;4994542;28;20318;-77
2023/10/19 05:20:55;;;;;;;24.00;13.90;;;8.90;99.90;;;;;;4996269;28;20317;-77
2023/10/19 05:23:25;;;;;;;19.50;12.93;;;8.90;99.90;;;;;;4995523;28;20321;-77
2023/10/19 05:26:03;;;;;;;35.93;17.23;;;8.90;99.90;;;;;;4978037;28;20300;-77
2023/10/19 05:28:29;;;;;;;24.37;15.03;;;8.90;99.90;;;;;;4994092;28;20388;-77
2023/10/19 05:30:55;;;;;;;23.40;14.10;;;8.90;99.90;;;;;;4995567;28;20285;-78
2023/10/19 05:33:21;;;;;;;21.93;13.80;;;8.90;99.90;;;;;;4994549;28;20293;-77
2023/10/19 05:35:47;;;;;;;17.97;12.40;;;8.90;99.90;;;;;;4996250;28;20088;-77
2023/10/19 05:38:13;;;;;;;23.17;14.57;;;8.90;99.90;;;;;;4995689;28;20042;-78
2023/10/19 05:40:42;;;;;;;31.97;15.37;;;8.90;99.90;;;;;;4995029;28;20689;-77
2023/10/19 05:43:09;;;;;;;21.97;13.53;;;8.90;99.90;;;;;;4995332;28;20085;-78
2023/10/19 05:45:36;;;;;;;24.83;15.10;;;8.90;99.90;;;;;;4994268;28;20294;-77
2023/10/19 05:48:03;;;;;;;22.10;14.10;;;8.90;99.90;;;;;;4995207;28;20309;-77
2023/10/19 05:50:29;;;;;;;23.53;15.00;;;8.90;99.90;;;;;;4995163;28;20281;-77
2023/10/19 05:52:55;;;;;;;30.60;16.57;;;8.90;99.90;;;;;;4978021;28;20432;-77
2023/10/19 05:55:21;;;;;;;26.37;15.27;;;8.90;99.90;;;;;;4995588;28;20477;-79
2023/10/19 05:57:47;;;;;;;29.17;16.57;;;8.90;99.90;;;;;;4978608;28;20054;-77
2023/10/19 06:00:13;;;;;;;28.83;16.30;;;9.00;99.90;;;;;;4993991;28;20290;-78
2023/10/19 06:02:43;;;;;;;28.57;15.87;;;9.00;99.90;;;;;;4993966;28;20327;-77
2023/10/19 06:05:09;;;;;;;29.83;16.47;;;8.90;99.90;;;;;;4994861;28;20356;-77
2023/10/19 06:07:35;;;;;;;30.50;17.33;;;8.90;99.90;;;;;;4994724;28;20341;-78
2023/10/19 06:10:04;;;;;;;28.50;16.57;;;9.00;99.90;;;;;;4993917;28;20329;-78
2023/10/19 06:12:31;;;;;;;31.47;17.70;;;9.00;99.90;;;;;;4993546;28;20478;-77
2023/10/19 06:14:57;;;;;;;24.53;15.63;;;9.00;99.90;;;;;;4994727;28;20356;-77
2023/10/19 06:17:23;;;;;;;25.23;15.63;;;9.00;99.90;;;;;;4995151;28;20282;-77
2023/10/19 06:19:49;;;;;;;26.43;16.47;;;9.00;99.90;;;;;;4977453;28;20054;-77
2023/10/19 06:22:16;;;;;;;32.70;17.53;;;9.00;99.90;;;;;;4994662;28;20051;-77
2023/10/19 06:24:43;;;;;;;28.63;16.47;;;9.00;99.90;;;;;;4994578;28;20296;-77
2023/10/19 06:27:10;;;;;;;26.53;15.93;;;9.00;99.90;;;;;;4994475;28;20742;-77
2023/10/19 06:29:35;;;;;;;24.93;15.13;;;9.00;99.90;;;;;;4994369;28;20336;-78
2023/10/19 06:32:02;;;;;;;25.67;16.30;;;9.00;99.90;;;;;;4993211;28;20328;-78
2023/10/19 06:34:28;;;;;;;25.93;16.07;;;9.00;99.90;;;;;;4994003;28;20494;-79
2023/10/19 06:36:54;;;;;;;23.30;15.43;;;9.10;99.90;;;;;;4994872;28;20273;-79
2023/10/19 06:39:21;;;;;;;25.67;15.87;;;9.10;99.90;;;;;;4994265;28;20289;-79
2023/10/19 06:41:47;;;;;;;21.33;14.40;;;9.10;99.90;;;;;;4993099;28;20046;-79
2023/10/19 06:44:13;;;;;;;36.73;18.30;;;9.10;99.90;;;;;;4994082;28;20312;-79
2023/10/19 06:46:39;;;;;;;25.37;16.17;;;9.10;99.90;;;;;;4993416;28;20376;-79
2023/10/19 06:49:05;;;;;;;18.63;13.77;;;9.10;99.90;;;;;;4977087;28;20865;-78
2023/10/19 06:51:33;;;;;;;23.67;14.53;;;9.10;99.90;;;;;;4993218;28;20137;-79
2023/10/19 06:53:59;;;;;;;25.40;14.80;;;9.10;99.90;;;;;;4994109;28;20293;-79
2023/10/19 06:56:25;;;;;;;19.70;14.53;;;9.10;99.90;;;;;;4994572;28;20297;-79
2023/10/19 06:58:50;;;;;;;27.33;15.70;;;9.10;99.90;;;;;;4994805;28;20441;-79
2023/10/19 07:01:17;;;;;;;22.13;14.33;;;9.20;99.90;;;;;;4992810;28;20290;-79
2023/10/19 07:03:44;;;;;;;23.43;14.30;;;9.20;99.90;;;;;;4977264;28;20050;-79
2023/10/19 07:06:13;;;;;;;23.13;14.00;;;9.20;99.90;;;;;;4994103;28;20292;-79
2023/10/19 07:08:40;;;;;;;23.37;14.57;;;9.20;99.90;;;;;;4993293;28;20310;-79
2023/10/19 07:11:07;;;;;;;28.93;16.70;;;9.10;99.90;;;;;;4977328;28;20290;-79
2023/10/19 07:13:33;;;;;;;23.53;14.63;;;9.20;99.90;;;;;;4993991;28;20286;-80
2023/10/19 07:15:59;;;;;;;22.57;15.03;;;9.20;99.90;;;;;;4993026;28;20287;-79
2023/10/19 07:18:25;;;;;;;19.47;13.53;;;9.20;99.90;;;;;;4992578;28;20289;-79
2023/10/19 07:21:00;;;;;;;17.50;12.70;;;9.20;99.90;;;;;;4977092;28;20042;-79
2023/10/19 07:23:28;;;;;;;;;;;9.20;99.90;;;;;;4998185;28;20098;-79
2023/10/19 07:25:56;;;;;;;21.53;13.83;;;9.20;99.90;;;;;;4996784;28;19932;-78
2023/10/19 07:28:24;;;;;;;23.33;15.23;;;9.20;99.90;;;;;;4997608;28;20302;-82
2023/10/19 07:30:51;;;;;;;24.83;14.83;;;9.30;99.90;;;;;;4997772;28;20289;-79
2023/10/19 07:33:17;;;;;;;19.90;14.20;;;9.20;99.90;;;;;;4996841;28;20749;-81
2023/10/19 07:35:46;;;;;;;23.57;15.00;;;9.30;99.90;;;;;;4996757;28;20290;-81
2023/10/19 07:38:13;;;;;;;21.37;14.80;;;9.30;99.90;;;;;;4996599;28;20042;-81
2023/10/19 07:40:39;;;;;;;22.27;15.17;;;9.30;99.90;;;;;;4997492;28;20289;-81
2023/10/19 07:43:05;;;;;;;23.23;15.00;;;9.30;99.90;;;;;;4996663;28;20360;-80
2023/10/19 07:45:31;;;;;;;21.47;14.53;;;9.30;99.90;;;;;;4996560;28;20045;-78
2023/10/19 07:48:05;;;;;;;34.17;17.97;;;9.30;99.90;;;;;;4997745;28;20068;-80
2023/10/19 07:50:32;;;;;;;34.60;17.83;;;9.30;99.90;;;;;;4981433;28;20315;-81
2023/10/19 07:52:58;;;;;;;36.10;19.07;;;9.30;99.90;;;;;;4996505;28;20495;-80
2023/10/19 07:55:24;;;;;;;32.03;18.13;;;9.40;99.90;;;;;;4996614;28;20309;-80
2023/10/19 07:57:50;;;;;;;27.43;17.53;;;9.40;99.90;;;;;;4996361;28;20046;-80
2023/10/19 08:00:17;;;;;;;29.17;16.73;;;9.40;99.90;;;;;;4996340;28;20049;-80
2023/10/19 08:02:46;;;;;;;41.63;19.17;;;9.40;99.90;;;;;;4996257;28;20773;-80
2023/10/19 08:05:19;;;;;;;32.10;16.77;;;9.40;99.90;;;;;;4979975;28;20348;-80
2023/10/19 08:07:46;;;;;;;26.07;15.87;;;9.50;99.90;;;;;;4980028;28;20352;-81
2023/10/19 08:10:15;;;;;;;24.43;16.07;;;9.50;99.90;;;;;;4996135;28;20293;-80
2023/10/19 08:12:42;;;;;;;27.53;16.90;;;9.50;99.90;;;;;;4995706;28;20300;-81
2023/10/19 08:15:11;;;;;;;27.67;17.00;;;9.50;99.90;;;;;;4995910;28;20293;-81
2023/10/19 08:17:41;;;;;;;31.33;18.20;;;9.50;99.90;;;;;;4995818;28;20792;-81
2023/10/19 08:20:09;;;;;;;25.80;15.93;;;9.60;99.90;;;;;;4996309;28;20293;-80
2023/10/19 08:22:38;;;;;;;24.37;16.57;;;9.50;99.90;;;;;;4979700;28;20281;-81
2023/10/19 08:25:11;;;;;;;30.73;16.33;;;9.60;99.90;;;;;;4995749;28;20634;-80
2023/10/19 08:27:39;;;;;;;28.70;17.13;;;9.60;99.90;;;;;;4995430;28;20363;-81
2023/10/19 08:30:08;;;;;;;31.17;17.70;;;9.70;99.90;;;;;;4997106;28;20296;-80
2023/10/19 08:32:35;;;;;;;25.47;16.03;;;9.60;99.90;;;;;;4995175;28;20290;-81
2023/10/19 08:35:02;;;;;;;24.37;15.10;;;9.70;99.90;;;;;;4994828;28;20777;-80
2023/10/19 08:37:28;;;;;;;27.93;16.37;;;9.70;99.90;;;;;;4979129;28;20352;-80
2023/10/19 08:39:54;;;;;;;27.93;17.07;;;9.70;99.90;;;;;;4996200;28;20293;-81
2023/10/19 08:42:20;;;;;;;25.20;15.80;;;9.80;99.90;;;;;;4995386;28;20296;-81
2023/10/19 08:44:46;;;;;;;28.60;17.03;;;9.80;99.90;;;;;;4995406;28;20042;-80
2023/10/19 08:47:12;;;;;;;23.90;15.43;;;9.80;99.90;;;;;;4995266;28;20317;-80
2023/10/19 08:49:38;;;;;;;25.80;15.57;;;9.80;99.90;;;;;;4995622;28;20285;-79
2023/10/19 08:52:06;;;;;;;31.57;16.63;;;9.80;99.90;;;;;;4979129;28;20062;-87
2023/10/19 08:54:33;;;;;;;32.20;17.27;;;9.80;99.90;;;;;;4979604;28;20097;-81
2023/10/19 08:56:59;;;;;;;30.03;16.70;;;9.80;99.90;;;;;;4978901;28;20474;-79
2023/10/19 08:59:26;;;;;;;25.90;15.43;;;9.80;99.90;;;;;;4962975;28;20893;-80
2023/10/19 09:02:02;;;;;;;31.67;16.93;;;9.80;99.90;;;;;;4995074;28;20297;-79
2023/10/19 09:04:28;;;;;;;33.10;16.77;;;9.90;99.90;;;;;;4995424;28;20281;-79
2023/10/19 09:06:55;;;;;;;30.63;16.23;;;9.90;99.90;;;;;;4978938;28;20875;-80
2023/10/19 09:09:21;;;;;;;42.83;19.70;;;9.80;99.90;;;;;;4994968;28;20443;-79
2023/10/19 09:11:48;;;;;;;33.33;18.50;;;9.90;99.90;;;;;;4994905;28;20305;-81
2023/10/19 09:14:14;;;;;;;40.10;19.20;;;9.90;99.90;;;;;;4995883;28;20373;-79
2023/10/19 09:16:57;;;;;;;32.33;18.70;;;9.90;99.90;;;;;;4995515;28;20765;-83
2023/10/19 09:19:41;;;;;;;34.97;17.40;;;9.90;99.90;;;;;;4995760;28;20277;-81
2023/10/19 09:22:08;;;;;;;29.67;17.73;;;9.90;99.90;;;;;;4995705;28;20896;-84
2023/10/19 09:24:35;;;;;;;25.93;16.73;;;10.00;99.90;;;;;;4978195;28;20800;-82
2023/10/19 09:27:05;;;;;;;30.73;17.87;;;10.00;99.90;;;;;;4994228;28;20347;-81
2023/10/19 09:29:34;;;;;;;30.00;18.33;;;9.90;99.90;;;;;;4995354;28;20765;-82
2023/10/19 09:32:03;;;;;;;31.03;16.90;;;10.00;99.90;;;;;;4994930;28;20292;-76
2023/10/19 09:34:32;;;;;;;27.90;16.90;;;10.00;99.90;;;;;;4995491;28;20281;-81
2023/10/19 09:37:00;;;;;;;37.43;18.67;;;10.00;99.90;;;;;;4994451;28;20364;-81
2023/10/19 09:39:34;;;;;;;32.00;18.27;;;10.00;99.90;;;;;;4994183;28;20373;-78
2023/10/19 09:42:16;;;;;;;29.97;17.67;;;10.00;99.90;;;;;;4996153;28;20340;-87
2023/10/19 09:44:44;;;;;;;31.43;18.20;;;10.00;99.90;;;;;;4994748;28;20282;-80
2023/10/19 09:47:20;;;;;;;30.07;17.47;;;10.10;99.90;;;;;;4995942;28;20467;-83
2023/10/19 09:49:49;;;;;;;28.47;17.40;;;10.10;99.90;;;;;;4994851;28;20705;-83
2023/10/19 09:52:17;;;;;;;33.97;19.50;;;10.10;99.90;;;;;;4995345;28;20356;-81
2023/10/19 09:55:19;;;;;;;31.57;18.33;;;10.10;99.90;;;;;;4995598;28;20325;-84
2023/10/19 09:57:56;;;;;;;33.17;18.77;;;10.20;99.90;;;;;;4995316;28;20288;-79
2023/10/19 10:00:25;;;;;;;34.50;18.97;;;10.20;99.90;;;;;;4994871;28;20277;-83
2023/10/19 10:02:51;;;;;;;38.73;20.70;;;10.20;99.90;;;;;;4994929;28;20289;-83
2023/10/19 10:05:42;;;;;;;44.10;20.23;;;10.20;99.90;;;;;;4994517;28;20618;-84
2023/10/19 10:08:17;;;;;;;30.13;18.20;;;10.30;99.90;;;;;;4995043;28;20405;-86
2023/10/19 10:10:49;;;;;;;30.80;19.02;;;10.30;99.90;;;;;;4994808;28;20286;-86
2023/10/19 10:13:27;;;;;;;29.63;18.63;;;10.30;99.90;;;;;;4994826;28;20133;-81
2023/10/19 10:16:06;;;;;;;38.33;18.73;;;10.30;99.90;;;;;;4994722;28;20313;-79
2023/10/19 10:18:34;;;;;;;30.30;17.77;;;10.30;99.90;;;;;;4993492;28;20333;-82
2023/10/19 10:21:10;;;;;;;34.73;18.53;;;10.40;99.90;;;;;;4993517;28;20289;-85
2023/10/19 10:23:42;;;;;;;32.73;19.80;;;10.40;99.90;;;;;;4994529;28;20638;-81
2023/10/19 10:26:13;;;;;;;29.63;18.73;;;10.40;99.90;;;;;;4993259;28;20301;-76
2023/10/19 10:28:45;;;;;;;38.63;20.07;;;10.40;99.90;;;;;;4995020;28;20301;-81
2023/10/19 10:31:13;;;;;;;36.90;21.13;;;10.40;99.90;;;;;;4994436;28;20282;-79
2023/10/19 10:33:49;;;;;;;32.50;19.13;;;10.40;99.90;;;;;;4994374;28;20372;-81
2023/10/19 10:36:17;;;;;;;33.00;19.07;;;10.50;99.90;;;;;;4993519;28;20301;-85
2023/10/19 10:38:44;;;;;;;33.93;19.93;;;10.50;99.90;;;;;;4994393;28;20615;-79
2023/10/19 10:41:10;;;;;;;32.63;19.70;;;10.50;99.90;;;;;;4994169;28;20295;-82
2023/10/19 10:43:52;;;;;;;40.13;22.40;;;10.60;99.90;;;;;;4993104;28;20281;-80
2023/10/19 10:46:21;;;;;;;45.20;21.97;;;10.60;99.90;;;;;;4993405;28;20097;-81
2023/10/19 10:48:48;;;;;;;32.77;20.47;;;10.60;99.90;;;;;;4994030;28;20302;-83
2023/10/19 10:51:22;;;;;;;33.53;20.13;;;10.70;99.90;;;;;;4994248;28;20303;-79
2023/10/19 10:53:53;;;;;;;34.57;20.37;;;10.70;99.90;;;;;;4995006;28;20336;-80
2023/10/19 10:56:23;;;;;;;30.87;20.33;;;10.80;99.90;;;;;;4993638;28;20292;-80
2023/10/19 10:58:50;;;;;;;29.43;18.20;;;10.80;99.90;;;;;;4994171;28;20356;-81
2023/10/19 11:01:36;;;;;;;33.13;20.77;;;10.80;99.90;;;;;;4976819;28;20292;-79
2023/10/19 11:04:13;;;;;;;38.23;21.43;;;10.80;99.90;;;;;;4993076;28;20356;-82
2023/10/19 11:06:55;;;;;;;33.70;19.53;;;10.80;99.90;;;;;;4993734;28;20761;-81
2023/10/19 11:09:28;;;;;;;35.20;21.10;;;10.80;99.90;;;;;;4993996;28;20290;-82
2023/10/19 11:11:54;;;;;;;34.80;20.23;;;10.80;99.90;;;;;;4977621;28;20372;-82
2023/10/19 11:14:21;;;;;;;43.57;21.57;;;10.80;99.90;;;;;;4993924;28;20673;-82
2023/10/19 11:16:47;;;;;;;34.73;20.47;;;10.80;99.90;;;;;;4993962;28;20483;-82
2023/10/19 11:19:13;;;;;;;31.80;19.97;;;10.80;99.90;;;;;;4993602;28;20297;-82
2023/10/19 11:21:52;;;;;;;35.17;20.07;;;10.80;99.90;;;;;;4993504;28;20042;-82
2023/10/19 11:24:30;;;;;;;32.17;20.47;;;10.80;99.90;;;;;;4994707;28;20426;-83
2023/10/19 11:26:55;;;;;;;29.60;19.97;;;10.90;99.90;;;;;;4992852;28;20300;-82
2023/10/19 11:29:22;;;;;;;40.07;22.13;;;10.90;99.90;;;;;;4992585;28;20285;-82
2023/10/19 11:31:58;;;;;;;38.20;20.90;;;10.90;99.90;;;;;;4994406;28;20054;-82
2023/10/19 11:34:25;;;;;;;38.57;22.53;;;10.90;99.90;;;;;;4993737;28;20277;-78
2023/10/19 11:36:56;;;;;;;31.30;20.67;;;10.90;99.90;;;;;;4992700;28;20289;-81
2023/10/19 11:39:26;;;;;;;30.70;19.37;;;11.00;99.90;;;;;;4993944;28;20293;-80
2023/10/19 11:41:54;;;;;;;36.67;21.10;;;11.00;99.90;;;;;;4993216;28;20835;-84
2023/10/19 11:44:20;;;;;;;41.10;22.30;;;11.00;99.90;;;;;;4994061;28;20282;-80
2023/10/19 11:46:48;;;;;;;38.83;24.33;;;11.00;99.90;;;;;;4992437;28;20290;-82
2023/10/19 11:49:14;;;;;;;34.97;21.77;;;11.00;99.90;;;;;;4992290;28;20053;-80
2023/10/19 11:51:39;;;;;;;40.77;22.97;;;11.10;99.90;;;;;;4992279;28;20277;-80
2023/10/19 11:54:08;;;;;;;31.83;21.23;;;11.10;99.90;;;;;;4993769;28;20482;-82
2023/10/19 11:56:34;;;;;;;33.43;20.83;;;11.20;99.90;;;;;;4991217;28;20050;-81
2023/10/19 11:59:01;;;;;;;39.83;22.43;;;11.20;99.90;;;;;;4992414;28;20793;-81
2023/10/19 12:01:29;;;;;;;32.70;21.43;;;11.20;99.90;;;;;;4993262;28;20391;-82
2023/10/19 12:03:55;;;;;;;31.73;21.20;;;11.20;99.90;;;;;;4993367;28;20308;-82
2023/10/19 12:06:23;;;;;;;30.67;20.37;;;11.20;99.90;;;;;;4992066;28;20289;-83
2023/10/19 12:08:49;;;;;;;31.43;20.07;;;11.20;99.90;;;;;;4996743;28;20054;-83
2023/10/19 12:11:15;;;;;;;28.00;20.10;;;11.20;99.90;;;;;;4996964;28;20286;-90
2023/10/19 12:13:44;;;;;;;35.63;21.97;;;11.20;99.90;;;;;;4995535;28;20046;-80
2023/10/19 12:16:15;;;;;;;33.93;20.70;;;11.20;99.90;;;;;;4996871;28;20088;-81
2023/10/19 12:18:44;;;;;;;37.63;21.30;;;11.20;99.90;;;;;;4996143;28;20297;-81
2023/10/19 12:21:14;;;;;;;35.83;21.37;;;11.20;99.90;;;;;;4995550;28;20364;-85
2023/10/19 12:23:43;;;;;;;26.63;20.07;;;11.20;99.90;;;;;;4995624;28;20281;-82
2023/10/19 12:26:12;;;;;;;36.50;20.73;;;11.20;99.90;;;;;;4995143;28;20773;-80
2023/10/19 12:28:39;;;;;;;35.50;21.43;;;11.20;99.90;;;;;;4996594;28;20333;-82
2023/10/19 12:31:10;;;;;;;32.37;20.37;;;11.20;99.90;;;;;;4979794;28;20289;-81
2023/10/19 12:33:38;;;;;;;30.57;21.10;;;11.20;99.90;;;;;;4996541;28;20749;-86
2023/10/19 12:38:50;;;;;;;35.17;21.85;;;11.20;99.90;;;;;;4996423;28;20734;-82
2023/10/19 12:41:17;;;;;;;32.37;20.33;;;11.10;99.90;;;;;;4996336;28;20051;-82
2023/10/19 12:43:43;;;;;;;31.50;19.90;;;11.10;99.90;;;;;;4995665;28;20293;-84
2023/10/19 12:46:11;;;;;;;45.97;25.70;;;11.10;99.90;;;;;;4996514;28;20343;-86
2023/10/19 12:48:37;;;;;;;31.47;20.80;;;11.00;99.90;;;;;;4979472;28;20313;-81
2023/10/19 12:51:06;;;;;;;38.63;22.53;;;11.00;99.90;;;;;;4995883;28;20647;-84
2023/10/19 12:53:33;;;;;;;32.87;21.57;;;11.00;99.90;;;;;;4996345;28;20042;-82
2023/10/19 12:55:59;;;;;;;40.23;23.47;;;11.00;99.90;;;;;;4996643;28;20281;-83
2023/10/19 12:58:29;;;;;;;41.97;23.40;;;11.00;99.90;;;;;;4996093;28;20274;-87